Time,TemperatureF,DewpointF,PressureIn,WindDirection,WindDirectionDegrees,WindSpeedMPH,WindSpeedGustMPH,Humidity,HourlyPrecipIn,Conditions,Clouds,dailyrainin,SoftwareType,DateUTC
2013-04-29 00:03:00,55.0,45.0,30.14,ESE,120,3.0,11.0,70,0.00,,,0.00,,2013-04-29 04:03:00,
2013-04-29 00:13:00,55.0,45.0,30.14,ESE,120,3.0,11.0,70,0.00,,,0.00,,2013-04-29 04:13:00,
2013-04-29 00:23:00,55.0,44.0,30.14,East,93,0.0,8.0,67,0.00,,,0.00,,2013-04-29 04:23:00,
2013-04-29 00:33:00,55.0,44.0,30.14,East,93,0.0,8.0,67,0.00,,,0.00,,2013-04-29 04:33:00,
2013-04-29 00:43:00,55.0,44.0,30.14,East,93,0.0,8.0,67,0.00,,,0.00,,2013-04-29 04:43:00,
2013-04-29 00:52:00,55.0,41.0,30.13,SSE,157,1.0,16.0,60,0.00,,,0.00,,2013-04-29 04:52:00,
2013-04-29 01:02:00,55.0,41.0,30.13,SSE,157,1.0,16.0,60,0.00,,,0.00,,2013-04-29 05:02:00,
2013-04-29 01:12:00,55.0,41.0,30.13,SSE,157,1.0,16.0,60,0.00,,,0.00,,2013-04-29 05:12:00,
2013-04-29 01:22:00,54.0,39.0,30.13,SE,131,4.0,13.0,57,0.00,,,0.00,,2013-04-29 05:22:00,
2013-04-29 01:32:00,54.0,39.0,30.13,SE,131,4.0,13.0,57,0.00,,,0.00,,2013-04-29 05:32:00,
2013-04-29 01:42:00,54.0,39.0,30.13,SE,131,4.0,13.0,57,0.00,,,0.00,,2013-04-29 05:42:00,
2013-04-29 01:52:00,54.0,39.0,30.12,ESE,120,0.0,5.0,56,0.00,,,0.00,,2013-04-29 05:52:00,
2013-04-29 02:02:00,54.0,39.0,30.12,ESE,120,0.0,5.0,56,0.00,,,0.00,,2013-04-29 06:02:00,
2013-04-29 02:12:00,54.0,39.0,30.12,ESE,120,0.0,5.0,56,0.00,,,0.00,,2013-04-29 06:12:00,
2013-04-29 02:21:00,54.0,39.0,30.12,ENE,61,1.0,7.0,56,0.00,,,0.00,,2013-04-29 06:21:00,
2013-04-29 02:32:00,54.0,39.0,30.12,ENE,61,1.0,7.0,56,0.00,,,0.00,,2013-04-29 06:32:00,
2013-04-29 02:42:00,54.0,39.0,30.12,ENE,61,1.0,7.0,56,0.00,,,0.00,,2013-04-29 06:42:00,
2013-04-29 02:52:00,54.0,38.0,30.11,ESE,114,0.0,8.0,55,0.00,,,0.00,,2013-04-29 06:52:00,
2013-04-29 03:01:00,54.0,38.0,30.11,ESE,114,0.0,8.0,55,0.00,,,0.00,,2013-04-29 07:01:00,
2013-04-29 03:11:00,54.0,38.0,30.11,ESE,114,0.0,8.0,55,0.00,,,0.00,,2013-04-29 07:11:00,
2013-04-29 03:21:00,54.0,39.0,30.10,SE,126,1.0,7.0,57,0.00,,,0.00,,2013-04-29 07:21:00,
2013-04-29 03:32:00,54.0,39.0,30.10,SE,126,1.0,7.0,57,0.00,,,0.00,,2013-04-29 07:32:00,
2013-04-29 03:42:00,54.0,39.0,30.10,SE,126,1.0,7.0,57,0.00,,,0.00,,2013-04-29 07:42:00,
2013-04-29 03:52:00,54.0,40.0,30.10,East,101,0.0,7.0,59,0.00,,,0.00,,2013-04-29 07:52:00,
2013-04-29 04:03:00,54.0,40.0,30.10,East,101,0.0,7.0,59,0.00,,,0.00,,2013-04-29 08:03:00,
2013-04-29 04:11:00,54.0,40.0,30.10,East,101,0.0,7.0,59,0.00,,,0.00,,2013-04-29 08:11:00,
2013-04-29 04:21:00,54.0,40.0,30.09,NE,45,0.0,5.0,59,0.00,,,0.00,,2013-04-29 08:21:00,
2013-04-29 04:32:00,54.0,40.0,30.09,NE,45,0.0,5.0,59,0.00,,,0.00,,2013-04-29 08:32:00,
2013-04-29 04:42:00,54.0,40.0,30.09,NE,45,0.0,5.0,59,0.00,,,0.00,,2013-04-29 08:42:00,
2013-04-29 04:52:00,54.0,41.0,30.09,SW,234,0.0,7.0,62,0.00,,,0.00,,2013-04-29 08:52:00,
2013-04-29 05:01:00,54.0,41.0,30.09,SW,234,0.0,7.0,62,0.00,,,0.00,,2013-04-29 09:01:00,
2013-04-29 05:12:00,54.0,41.0,30.09,SW,234,0.0,7.0,62,0.00,,,0.00,,2013-04-29 09:12:00,
2013-04-29 05:21:00,54.0,42.0,30.09,South,180,0.0,6.0,64,0.00,,,0.00,,2013-04-29 09:21:00,
2013-04-29 05:33:00,54.0,42.0,30.09,South,180,0.0,6.0,64,0.00,,,0.00,,2013-04-29 09:33:00,
2013-04-29 05:42:00,54.0,42.0,30.09,South,180,0.0,6.0,64,0.00,,,0.00,,2013-04-29 09:42:00,
2013-04-29 05:53:00,55.0,44.0,30.08,ENE,68,2.0,9.0,67,0.00,,,0.00,,2013-04-29 09:53:00,
2013-04-29 06:02:00,55.0,44.0,30.08,ENE,68,2.0,9.0,67,0.00,,,0.00,,2013-04-29 10:02:00,
2013-04-29 06:12:00,55.0,44.0,30.08,ENE,68,2.0,9.0,67,0.00,,,0.00,,2013-04-29 10:12:00,
2013-04-29 06:23:00,54.0,44.0,30.09,SE,131,0.0,11.0,68,0.00,,,0.00,,2013-04-29 10:23:00,
2013-04-29 06:32:00,54.0,44.0,30.09,SE,131,0.0,11.0,68,0.00,,,0.00,,2013-04-29 10:32:00,
2013-04-29 06:42:00,54.0,44.0,30.09,SE,131,0.0,11.0,68,0.00,,,0.00,,2013-04-29 10:42:00,
2013-04-29 06:52:00,54.0,44.0,30.10,ESE,104,0.0,11.0,70,0.00,,,0.00,,2013-04-29 10:52:00,
2013-04-29 07:03:00,54.0,44.0,30.10,ESE,104,0.0,11.0,70,0.00,,,0.00,,2013-04-29 11:03:00,
2013-04-29 07:12:00,54.0,44.0,30.10,ESE,104,0.0,11.0,70,0.00,,,0.00,,2013-04-29 11:12:00,
2013-04-29 07:21:00,54.0,46.0,30.10,ESE,116,0.0,8.0,74,0.00,,,0.00,,2013-04-29 11:21:00,
2013-04-29 07:32:00,54.0,46.0,30.10,ESE,116,0.0,8.0,74,0.00,,,0.00,,2013-04-29 11:32:00,
2013-04-29 07:42:00,54.0,46.0,30.10,ESE,116,0.0,8.0,74,0.00,,,0.00,,2013-04-29 11:42:00,
2013-04-29 07:52:00,54.0,48.0,30.11,NNE,29,3.0,9.0,79,0.00,,,0.00,,2013-04-29 11:52:00,
2013-04-29 08:01:00,54.0,48.0,30.11,NNE,29,3.0,9.0,79,0.00,,,0.00,,2013-04-29 12:01:00,
2013-04-29 08:12:00,54.0,48.0,30.11,NNE,29,3.0,9.0,79,0.00,,,0.00,,2013-04-29 12:12:00,
2013-04-29 08:22:00,53.0,49.0,30.10,NE,48,0.0,8.0,85,0.01,,,0.01,,2013-04-29 12:22:00,
2013-04-29 08:32:00,53.0,49.0,30.10,NE,48,0.0,8.0,85,0.01,,,0.01,,2013-04-29 12:32:00,
2013-04-29 08:42:00,53.0,49.0,30.10,NE,48,0.0,8.0,85,0.01,,,0.01,,2013-04-29 12:42:00,
2013-04-29 08:52:00,53.0,50.0,30.10,NE,42,2.0,5.0,88,0.01,,,0.01,,2013-04-29 12:52:00,
2013-04-29 09:01:00,53.0,50.0,30.10,NE,42,2.0,5.0,88,0.01,,,0.01,,2013-04-29 13:01:00,
2013-04-29 09:11:00,53.0,50.0,30.10,NE,42,2.0,5.0,88,0.01,,,0.01,,2013-04-29 13:11:00,
2013-04-29 09:21:00,52.0,49.0,30.10,NE,55,2.0,5.0,91,0.01,,,0.02,,2013-04-29 13:21:00,
2013-04-29 09:32:00,52.0,49.0,30.10,NE,55,2.0,5.0,91,0.01,,,0.02,,2013-04-29 13:32:00,
2013-04-29 09:42:00,52.0,49.0,30.10,NE,55,2.0,5.0,91,0.01,,,0.02,,2013-04-29 13:42:00,
2013-04-29 09:52:00,53.0,50.0,30.10,NE,46,0.0,6.0,91,0.01,,,0.02,,2013-04-29 13:52:00,
2013-04-29 10:02:00,53.0,50.0,30.10,NE,46,0.0,6.0,91,0.01,,,0.02,,2013-04-29 14:02:00,
2013-04-29 10:12:00,53.0,50.0,30.10,NE,46,0.0,6.0,91,0.01,,,0.02,,2013-04-29 14:12:00,
2013-04-29 10:21:00,53.0,50.0,30.09,SSE,159,2.0,8.0,91,0.01,,,0.03,,2013-04-29 14:21:00,
2013-04-29 10:32:00,53.0,50.0,30.09,SSE,159,2.0,8.0,91,0.01,,,0.03,,2013-04-29 14:32:00,
2013-04-29 10:42:00,53.0,50.0,30.09,SSE,159,2.0,8.0,91,0.01,,,0.03,,2013-04-29 14:42:00,
2013-04-29 10:52:00,54.0,51.0,30.10,East,101,0.0,11.0,90,0.01,,,0.03,,2013-04-29 14:52:00,
2013-04-29 11:01:00,54.0,51.0,30.10,East,101,0.0,11.0,90,0.01,,,0.03,,2013-04-29 15:01:00,
2013-04-29 11:12:00,54.0,51.0,30.10,East,101,0.0,11.0,90,0.01,,,0.03,,2013-04-29 15:12:00,
2013-04-29 11:21:00,55.0,52.0,30.09,ESE,113,0.0,10.0,88,0.00,,,0.03,,2013-04-29 15:21:00,
2013-04-29 11:33:00,55.0,52.0,30.09,ESE,113,0.0,10.0,88,0.00,,,0.03,,2013-04-29 15:33:00,
2013-04-29 11:43:00,55.0,52.0,30.09,ESE,113,0.0,10.0,88,0.00,,,0.03,,2013-04-29 15:43:00,
2013-04-29 11:53:00,55.0,51.0,30.09,NE,45,3.0,13.0,87,0.00,,,0.03,,2013-04-29 15:53:00,
2013-04-29 12:03:00,55.0,51.0,30.09,NE,45,3.0,13.0,87,0.00,,,0.03,,2013-04-29 16:03:00,
2013-04-29 12:13:00,55.0,51.0,30.09,NE,45,3.0,13.0,87,0.00,,,0.03,,2013-04-29 16:13:00,
2013-04-29 12:23:00,56.0,52.0,30.09,SSE,159,4.0,12.0,87,0.00,,,0.03,,2013-04-29 16:23:00,
2013-04-29 12:33:00,56.0,52.0,30.09,SSE,159,4.0,12.0,87,0.00,,,0.03,,2013-04-29 16:33:00,
2013-04-29 12:42:00,56.0,52.0,30.09,SSE,159,4.0,12.0,87,0.00,,,0.03,,2013-04-29 16:42:00,
2013-04-29 12:52:00,57.0,53.0,30.09,SE,126,0.0,10.0,86,0.00,,,0.03,,2013-04-29 16:52:00,
2013-04-29 13:02:00,57.0,53.0,30.09,SE,126,0.0,10.0,86,0.00,,,0.03,,2013-04-29 17:02:00,
2013-04-29 13:12:00,57.0,53.0,30.09,SE,126,0.0,10.0,86,0.00,,,0.03,,2013-04-29 17:12:00,
2013-04-29 13:22:00,57.0,53.0,30.08,NE,38,1.0,8.0,85,0.00,,,0.03,,2013-04-29 17:22:00,
2013-04-29 13:32:00,57.0,53.0,30.08,NE,38,1.0,8.0,85,0.00,,,0.03,,2013-04-29 17:32:00,
2013-04-29 13:42:00,57.0,53.0,30.08,NE,38,1.0,8.0,85,0.00,,,0.03,,2013-04-29 17:42:00,
2013-04-29 13:52:00,58.0,54.0,30.08,South,189,0.0,7.0,85,0.00,,,0.03,,2013-04-29 17:52:00,
2013-04-29 14:01:00,58.0,54.0,30.08,South,189,0.0,7.0,85,0.00,,,0.03,,2013-04-29 18:01:00,
2013-04-29 14:13:00,58.0,54.0,30.08,South,189,0.0,7.0,85,0.00,,,0.03,,2013-04-29 18:13:00,
2013-04-29 14:22:00,58.0,53.0,30.07,SSW,202,3.0,15.0,83,0.00,,,0.03,,2013-04-29 18:22:00,
2013-04-29 14:32:00,58.0,53.0,30.07,SSW,202,3.0,15.0,83,0.00,,,0.03,,2013-04-29 18:32:00,
2013-04-29 14:42:00,58.0,53.0,30.07,SSW,202,3.0,15.0,83,0.00,,,0.03,,2013-04-29 18:42:00,
2013-04-29 14:52:00,59.0,54.0,30.07,ESE,110,0.0,10.0,83,0.00,,,0.03,,2013-04-29 18:52:00,
2013-04-29 15:01:00,59.0,54.0,30.07,ESE,110,0.0,10.0,83,0.00,,,0.03,,2013-04-29 19:01:00,
2013-04-29 15:12:00,59.0,54.0,30.07,ESE,110,0.0,10.0,83,0.00,,,0.03,,2013-04-29 19:12:00,
2013-04-29 15:21:00,59.0,54.0,30.06,ESE,114,0.0,10.0,82,0.00,,,0.03,,2013-04-29 19:21:00,
2013-04-29 15:32:00,59.0,54.0,30.06,ESE,114,0.0,10.0,82,0.00,,,0.03,,2013-04-29 19:32:00,
2013-04-29 15:42:00,59.0,54.0,30.06,ESE,114,0.0,10.0,82,0.00,,,0.03,,2013-04-29 19:42:00,
2013-04-29 15:52:00,59.0,54.0,30.06,South,178,3.0,9.0,84,0.00,,,0.03,,2013-04-29 19:52:00,
2013-04-29 16:02:00,59.0,54.0,30.06,South,178,3.0,9.0,84,0.00,,,0.03,,2013-04-29 20:02:00,
2013-04-29 16:12:00,59.0,54.0,30.06,South,178,3.0,9.0,84,0.00,,,0.03,,2013-04-29 20:12:00,
2013-04-29 16:21:00,59.0,55.0,30.05,NE,47,0.0,9.0,86,0.00,,,0.03,,2013-04-29 20:21:00,
2013-04-29 16:32:00,59.0,55.0,30.05,NE,47,0.0,9.0,86,0.00,,,0.03,,2013-04-29 20:32:00,
2013-04-29 16:42:00,59.0,55.0,30.05,NE,47,0.0,9.0,86,0.00,,,0.03,,2013-04-29 20:42:00,
2013-04-29 16:52:00,58.0,54.0,30.04,South,183,0.0,7.0,86,0.00,,,0.03,,2013-04-29 20:52:00,
2013-04-29 17:01:00,58.0,54.0,30.04,South,183,0.0,7.0,86,0.00,,,0.03,,2013-04-29 21:01:00,
2013-04-29 17:11:00,58.0,54.0,30.04,South,183,0.0,7.0,86,0.00,,,0.03,,2013-04-29 21:11:00,
2013-04-29 17:21:00,58.0,54.0,30.05,East,85,4.0,10.0,87,0.01,,,0.04,,2013-04-29 21:21:00,
2013-04-29 17:33:00,58.0,54.0,30.05,East,85,4.0,10.0,87,0.01,,,0.04,,2013-04-29 21:33:00,
2013-04-29 17:43:00,58.0,54.0,30.05,East,85,4.0,10.0,87,0.01,,,0.04,,2013-04-29 21:43:00,
2013-04-29 17:53:00,58.0,54.0,30.05,ESE,114,1.0,9.0,87,0.01,,,0.04,,2013-04-29 21:53:00,
2013-04-29 18:02:00,58.0,54.0,30.05,ESE,114,1.0,9.0,87,0.01,,,0.04,,2013-04-29 22:02:00,
2013-04-29 18:13:00,58.0,54.0,30.05,ESE,114,1.0,9.0,87,0.01,,,0.04,,2013-04-29 22:13:00,
2013-04-29 18:23:00,58.0,54.0,30.05,SE,145,0.0,9.0,87,0.00,,,0.04,,2013-04-29 22:23:00,
2013-04-29 18:32:00,58.0,54.0,30.05,SE,145,0.0,9.0,87,0.00,,,0.04,,2013-04-29 22:32:00,
2013-04-29 18:42:00,58.0,54.0,30.05,SE,145,0.0,9.0,87,0.00,,,0.04,,2013-04-29 22:42:00,
2013-04-29 18:53:00,58.0,54.0,30.06,ESE,117,5.0,11.0,86,0.00,,,0.04,,2013-04-29 22:53:00,
2013-04-29 19:02:00,58.0,54.0,30.06,ESE,117,5.0,11.0,86,0.00,,,0.04,,2013-04-29 23:02:00,
2013-04-29 19:12:00,58.0,54.0,30.06,ESE,117,5.0,11.0,86,0.00,,,0.04,,2013-04-29 23:12:00,
2013-04-29 19:22:00,58.0,54.0,30.06,East,99,2.0,11.0,87,0.00,,,0.04,,2013-04-29 23:22:00,
2013-04-29 19:32:00,58.0,54.0,30.06,East,99,2.0,11.0,87,0.00,,,0.04,,2013-04-29 23:32:00,
2013-04-29 19:42:00,58.0,54.0,30.06,East,99,2.0,11.0,87,0.00,,,0.04,,2013-04-29 23:42:00,
2013-04-29 19:52:00,58.0,54.0,30.07,SSE,159,4.0,8.0,87,0.00,,,0.04,,2013-04-29 23:52:00,
2013-04-29 20:01:00,58.0,54.0,30.07,SSE,159,4.0,8.0,87,0.00,,,0.04,,2013-04-30 00:01:00,
2013-04-29 20:11:00,58.0,54.0,30.07,SSE,159,4.0,8.0,87,0.00,,,0.04,,2013-04-30 00:11:00,
2013-04-29 20:21:00,57.0,53.0,30.08,SE,146,1.0,15.0,88,0.00,,,0.04,,2013-04-30 00:21:00,
2013-04-29 20:32:00,57.0,53.0,30.08,SE,146,1.0,15.0,88,0.00,,,0.04,,2013-04-30 00:32:00,
2013-04-29 20:42:00,57.0,53.0,30.08,SE,146,1.0,15.0,88,0.00,,,0.04,,2013-04-30 00:42:00,
2013-04-29 20:52:00,57.0,53.0,30.09,East,96,10.0,12.0,88,0.00,,,0.04,,2013-04-30 00:52:00,
2013-04-29 21:02:00,57.0,53.0,30.09,East,96,10.0,12.0,88,0.00,,,0.04,,2013-04-30 01:02:00,
2013-04-29 21:11:00,57.0,53.0,30.09,East,96,10.0,12.0,88,0.00,,,0.04,,2013-04-30 01:11:00,
2013-04-29 21:22:00,57.0,53.0,30.09,ENE,62,3.0,12.0,87,0.00,,,0.04,,2013-04-30 01:22:00,
2013-04-29 21:32:00,57.0,53.0,30.09,ENE,62,3.0,12.0,87,0.00,,,0.04,,2013-04-30 01:32:00,
2013-04-29 21:42:00,57.0,53.0,30.09,ENE,62,3.0,12.0,87,0.00,,,0.04,,2013-04-30 01:42:00,
2013-04-29 21:52:00,57.0,53.0,30.11,ESE,116,1.0,12.0,86,0.00,,,0.04,,2013-04-30 01:52:00,
2013-04-29 22:01:00,57.0,53.0,30.11,ESE,116,1.0,12.0,86,0.00,,,0.04,,2013-04-30 02:01:00,
2013-04-29 22:11:00,57.0,53.0,30.11,SE,145,2.0,15.0,87,0.00,,,0.04,,2013-04-30 02:11:00,
2013-04-29 22:21:00,57.0,53.0,30.11,SE,145,2.0,15.0,87,0.00,,,0.04,,2013-04-30 02:21:00,
2013-04-29 22:31:00,57.0,53.0,30.11,SE,145,2.0,15.0,87,0.00,,,0.04,,2013-04-30 02:31:00,
2013-04-29 22:42:00,57.0,53.0,30.11,SE,145,2.0,15.0,87,0.00,,,0.04,,2013-04-30 02:42:00,
2013-04-29 22:51:00,57.0,53.0,30.11,South,174,0.0,12.0,87,0.00,,,0.04,,2013-04-30 02:51:00,
2013-04-29 23:01:00,57.0,53.0,30.11,South,174,0.0,12.0,87,0.00,,,0.04,,2013-04-30 03:01:00,
2013-04-29 23:11:00,57.0,53.0,30.11,South,190,1.0,12.0,87,0.00,,,0.04,,2013-04-30 03:11:00,
2013-04-29 23:21:00,57.0,53.0,30.11,South,190,1.0,12.0,87,0.00,,,0.04,,2013-04-30 03:21:00,
2013-04-29 23:33:00,57.0,53.0,30.11,South,190,1.0,12.0,87,0.00,,,0.04,,2013-04-30 03:33:00,
2013-04-29 23:43:00,57.0,53.0,30.11,South,190,1.0,12.0,87,0.00,,,0.04,,2013-04-30 03:43:00,
2013-04-29 23:52:00,57.0,53.0,30.11,South,172,2.0,10.0,88,0.00,,,0.04,,2013-04-30 03:52:00,